Time;durP1;ratioP1;P1;durP2;ratioP2;P2;SDS_P1;SDS_P2;PMS_P1;PMS_P2;Temp;Humidity;BMP_temperature;BMP_pressure;BME280_temperature;BME280_humidity;BME280_pressure;Samples;Min_cycle;Max_cycle;Signal;HPM_P1;HPM_P2
2021/01/20 00:00:12;;;;;;;5.72;2.80;;;5.10;99.10;;;;;;5010852;28;20026;-70
2021/01/20 00:02:38;;;;;;;6.60;2.83;;;5.10;99.00;;;;;;5008832;28;20026;-70
2021/01/20 00:05:05;;;;;;;7.80;3.08;;;5.10;99.00;;;;;;5009465;28;20113;-70
2021/01/20 00:07:30;;;;;;;7.88;3.20;;;5.10;99.00;;;;;;5009191;28;20080;-70
2021/01/20 00:09:56;;;;;;;8.38;3.33;;;5.10;99.00;;;;;;5010634;28;20018;-70
2021/01/20 00:12:21;;;;;;;6.38;2.45;;;5.00;98.90;;;;;;5009890;28;20057;-70
2021/01/20 00:14:48;;;;;;;5.85;2.63;;;5.10;98.60;;;;;;5010699;28;20102;-70
2021/01/20 00:17:14;;;;;;;6.95;3.30;;;5.10;98.50;;;;;;5010805;28;20065;-69
2021/01/20 00:19:40;;;;;;;10.32;3.42;;;5.10;98.50;;;;;;5009327;28;20026;-70
2021/01/20 00:22:05;;;;;;;5.38;2.53;;;5.10;98.50;;;;;;5009898;28;20037;-70
2021/01/20 00:24:31;;;;;;;4.70;2.58;;;5.10;98.30;;;;;;5010532;28;20026;-70
2021/01/20 00:26:56;;;;;;;6.30;2.72;;;5.10;98.10;;;;;;5010533;28;20030;-70
2021/01/20 00:29:22;;;;;;;4.95;2.10;;;5.10;98.10;;;;;;5010414;28;20546;-70
2021/01/20 00:31:47;;;;;;;7.90;2.22;;;5.10;97.90;;;;;;5008631;28;20387;-70
2021/01/20 00:34:13;;;;;;;5.50;2.47;;;5.10;97.80;;;;;;5009046;28;20022;-69
2021/01/20 00:36:39;;;;;;;7.53;2.85;;;5.10;97.60;;;;;;5010430;28;20104;-69
2021/01/20 00:39:04;;;;;;;7.40;3.05;;;5.10;97.20;;;;;;5010526;28;20114;-70
2021/01/20 00:41:30;;;;;;;9.55;2.70;;;5.10;97.00;;;;;;5013749;28;20029;-70
2021/01/20 00:43:55;;;;;;;5.68;1.60;;;5.10;96.60;;;;;;5012110;28;20033;-70
2021/01/20 00:46:21;;;;;;;5.03;2.53;;;5.20;96.20;;;;;;5013820;28;20037;-70
2021/01/20 00:48:46;;;;;;;7.97;2.10;;;5.20;95.70;;;;;;5013882;28;20030;-70
2021/01/20 00:51:13;;;;;;;8.18;1.55;;;5.20;95.30;;;;;;5014293;28;20029;-70
2021/01/20 00:53:39;;;;;;;6.80;2.53;;;5.20;95.10;;;;;;5012954;28;20022;-70
2021/01/20 00:56:06;;;;;;;7.72;2.30;;;5.20;95.30;;;;;;5013800;28;20222;-70
2021/01/20 00:58:31;;;;;;;4.20;1.60;;;5.20;95.00;;;;;;5012533;28;20030;-70
2021/01/20 01:00:57;;;;;;;5.30;2.63;;;5.20;94.70;;;;;;5013887;28;20117;-70
2021/01/20 01:03:23;;;;;;;4.70;2.53;;;5.20;94.70;;;;;;5012185;28;20021;-70
2021/01/20 01:05:48;;;;;;;7.25;2.22;;;5.10;94.40;;;;;;5013932;28;20492;-70
2021/01/20 01:08:14;;;;;;;5.85;2.13;;;5.20;94.10;;;;;;5013784;28;20044;-70
2021/01/20 01:10:39;;;;;;;5.75;1.02;;;5.20;93.80;;;;;;5013853;28;20022;-71
2021/01/20 01:13:05;;;;;;;8.45;2.75;;;5.20;93.50;;;;;;5011967;28;20029;-70
2021/01/20 01:15:31;;;;;;;3.90;1.48;;;5.20;93.40;;;;;;5012468;28;20022;-70
2021/01/20 01:17:56;;;;;;;6.72;2.10;;;5.20;93.30;;;;;;5013694;28;20037;-70
2021/01/20 01:20:22;;;;;;;8.00;2.05;;;5.20;93.40;;;;;;5013588;28;20522;-70
2021/01/20 01:22:47;;;;;;;5.93;2.22;;;5.20;93.30;;;;;;5012843;28;20480;-70
2021/01/20 01:25:13;;;;;;;6.32;2.20;;;5.20;93.50;;;;;;5013458;28;20397;-70
2021/01/20 01:27:38;;;;;;;6.25;2.38;;;5.20;93.60;;;;;;5011946;28;20095;-70
2021/01/20 01:30:05;;;;;;;4.47;1.67;;;5.10;93.60;;;;;;5013119;28;20439;-70
2021/01/20 01:32:30;;;;;;;5.57;2.33;;;5.10;93.50;;;;;;5012395;28;20029;-70
2021/01/20 01:34:56;;;;;;;5.65;2.45;;;5.10;93.50;;;;;;5012971;28;20022;-70
2021/01/20 01:37:21;;;;;;;5.07;2.10;;;5.10;93.40;;;;;;5013045;28;20394;-70
2021/01/20 01:39:47;;;;;;;5.43;2.15;;;5.10;93.40;;;;;;5013112;28;20030;-70
2021/01/20 01:42:12;;;;;;;4.30;2.13;;;5.10;93.50;;;;;;5012442;28;20034;-70
2021/01/20 01:44:38;;;;;;;4.38;1.58;;;5.00;93.60;;;;;;5011946;28;20096;-70
2021/01/20 01:47:04;;;;;;;5.18;1.95;;;5.10;93.30;;;;;;5013056;28;20516;-70
2021/01/20 01:49:31;;;;;;;4.55;1.90;;;5.10;93.30;;;;;;5012889;28;20041;-70
2021/01/20 01:52:00;;;;;;;4.43;2.00;;;5.00;93.50;;;;;;5011438;28;20026;-70
2021/01/20 01:54:27;;;;;;;5.43;1.95;;;4.90;93.90;;;;;;5012725;28;20038;-70
2021/01/20 01:56:52;;;;;;;5.90;2.05;;;4.70;94.50;;;;;;5012822;28;20048;-70
2021/01/20 01:59:18;;;;;;;5.00;1.85;;;4.80;94.20;;;;;;5012799;28;20484;-70
2021/01/20 02:01:44;;;;;;;6.32;2.00;;;4.70;94.20;;;;;;5012331;28;20025;-71
2021/01/20 02:04:09;;;;;;;4.60;1.98;;;4.70;94.60;;;;;;5012608;28;20032;-70
2021/01/20 02:06:36;;;;;;;5.78;1.83;;;4.40;95.60;;;;;;5012643;28;20112;-70
2021/01/20 02:09:03;;;;;;;4.35;2.00;;;4.50;94.70;;;;;;5011227;28;20483;-70
2021/01/20 02:11:56;;;;;;;4.15;1.75;;;4.60;95.10;;;;;;5012601;28;20148;-70
2021/01/20 02:14:25;;;;;;;6.32;2.28;;;4.50;94.60;;;;;;5012473;28;20071;-70
2021/01/20 02:17:21;;;;;;;5.65;2.03;;;4.30;95.40;;;;;;5012602;28;20018;-70
2021/01/20 02:20:02;;;;;;;6.28;2.03;;;4.50;95.00;;;;;;5000387;28;20061;-70
2021/01/20 02:22:32;;;;;;;5.75;2.00;;;4.40;95.50;;;;;;5006110;28;20097;-70
2021/01/20 02:25:26;;;;;;;6.57;1.88;;;4.40;95.00;;;;;;5012284;28;20050;-70
2021/01/20 02:28:33;;;;;;;4.97;1.60;;;4.30;95.00;;;;;;4992565;28;20038;-70
2021/01/20 02:31:00;;;;;;;4.82;1.67;;;4.60;94.40;;;;;;4984289;28;20097;-70
2021/01/20 02:33:28;;;;;;;3.92;1.85;;;4.70;94.00;;;;;;4998678;28;20036;-70
2021/01/20 02:35:57;;;;;;;3.38;1.40;;;4.70;93.90;;;;;;5000910;28;20416;-70
2021/01/20 02:38:25;;;;;;;3.88;1.45;;;4.60;93.90;;;;;;4998849;28;20437;-71
2021/01/20 02:40:51;;;;;;;4.35;2.00;;;4.60;94.10;;;;;;5007891;28;20030;-70
2021/01/20 02:43:23;;;;;;;5.07;1.50;;;4.70;93.70;;;;;;5001540;28;20556;-71
2021/01/20 02:45:49;;;;;;;4.30;1.60;;;4.70;93.80;;;;;;4993130;28;20077;-70
2021/01/20 02:48:15;;;;;;;4.65;1.75;;;4.70;93.50;;;;;;5000072;28;20064;-70
2021/01/20 02:50:41;;;;;;;5.70;1.80;;;4.90;92.90;;;;;;5001855;28;20072;-70
2021/01/20 02:53:12;;;;;;;4.30;1.45;;;4.80;93.00;;;;;;4999726;28;20029;-70
2021/01/20 02:55:40;;;;;;;3.90;1.67;;;4.80;93.00;;;;;;5001552;28;20017;-70
2021/01/20 02:58:08;;;;;;;4.18;1.60;;;4.80;92.90;;;;;;5001638;28;20029;-70
2021/01/20 03:00:37;;;;;;;5.68;1.70;;;4.80;92.90;;;;;;5001194;28;20108;-70
2021/01/20 03:03:06;;;;;;;5.15;1.77;;;4.90;92.60;;;;;;5000927;28;20014;-70
2021/01/20 03:05:33;;;;;;;5.80;1.60;;;4.90;92.50;;;;;;5000895;28;20484;-70
2021/01/20 03:08:00;;;;;;;4.45;1.80;;;5.00;92.40;;;;;;4999367;28;20033;-70
2021/01/20 03:10:25;;;;;;;3.20;1.42;;;5.00;92.10;;;;;;5000347;28;20033;-71
2021/01/20 03:12:51;;;;;;;4.07;1.23;;;5.10;92.00;;;;;;5001033;28;20022;-71
2021/01/20 03:15:37;;;;;;;4.90;2.30;;;5.10;92.00;;;;;;5001641;28;20102;-71
2021/01/20 03:18:03;;;;;;;6.18;1.42;;;5.00;91.70;;;;;;5002194;28;20026;-70
2021/01/20 03:20:29;;;;;;;4.95;1.55;;;5.20;91.60;;;;;;4999246;28;20030;-70
2021/01/20 03:22:55;;;;;;;4.55;1.63;;;5.00;92.30;;;;;;5000368;28;20036;-71
2021/01/20 03:25:21;;;;;;;3.88;1.65;;;5.10;91.70;;;;;;5002046;28;20022;-70
2021/01/20 03:27:47;;;;;;;3.88;1.48;;;5.00;92.20;;;;;;5000036;28;20037;-70
2021/01/20 03:30:13;;;;;;;4.40;1.30;;;5.20;91.00;;;;;;4996604;28;20116;-70
2021/01/20 03:32:38;;;;;;;4.20;1.48;;;5.40;90.70;;;;;;4998492;28;20029;-70
2021/01/20 03:35:05;;;;;;;3.95;1.55;;;5.40;90.80;;;;;;4997363;28;20030;-70
2021/01/20 03:37:31;;;;;;;4.05;1.60;;;5.50;90.60;;;;;;5002740;28;20019;-70
2021/01/20 03:39:56;;;;;;;4.82;1.63;;;5.50;90.70;;;;;;4999435;28;20032;-70
2021/01/20 03:42:22;;;;;;;3.25;1.20;;;5.50;90.60;;;;;;5001722;28;20022;-70
2021/01/20 03:44:47;;;;;;;5.03;1.50;;;5.60;90.30;;;;;;5001332;28;20161;-70
2021/01/20 03:47:13;;;;;;;3.75;1.42;;;5.60;90.10;;;;;;5001428;28;20515;-70
2021/01/20 03:49:38;;;;;;;4.38;1.65;;;5.70;89.90;;;;;;4998514;28;20034;-70
2021/01/20 03:52:04;;;;;;;4.50;1.50;;;5.60;90.00;;;;;;5001303;28;20149;-70
2021/01/20 03:54:29;;;;;;;3.83;1.45;;;5.60;89.60;;;;;;5000577;28;20026;-70
2021/01/20 03:56:55;;;;;;;2.80;1.20;;;5.70;89.40;;;;;;4999967;28;20038;-70
2021/01/20 03:59:20;;;;;;;4.75;1.50;;;5.60;89.00;;;;;;4998513;28;20507;-70
2021/01/20 04:01:46;;;;;;;3.30;1.40;;;5.70;89.10;;;;;;4999750;28;20033;-70
2021/01/20 04:04:11;;;;;;;4.05;1.23;;;5.70;87.10;;;;;;5000795;28;20018;-71
2021/01/20 04:06:37;;;;;;;3.03;1.30;;;5.80;87.40;;;;;;4999959;28;20054;-70
2021/01/20 04:09:05;;;;;;;3.00;1.13;;;5.80;87.60;;;;;;5001688;28;20097;-70
2021/01/20 04:11:31;;;;;;;4.85;1.92;;;5.80;86.10;;;;;;4999575;28;20026;-70
2021/01/20 04:13:56;;;;;;;2.78;1.33;;;5.90;86.30;;;;;;4999365;28;20026;-70
2021/01/20 04:16:22;;;;;;;3.80;1.60;;;5.90;85.30;;;;;;5004700;28;20431;-71
2021/01/20 04:18:48;;;;;;;5.57;1.67;;;6.00;84.90;;;;;;5001549;28;20029;-70
2021/01/20 04:21:13;;;;;;;4.22;1.40;;;5.90;86.30;;;;;;5010321;28;20026;-70
2021/01/20 04:23:39;;;;;;;3.95;1.17;;;5.90;84.90;;;;;;5012549;28;20037;-70
2021/01/20 04:26:05;;;;;;;5.10;1.85;;;5.90;85.40;;;;;;5004983;28;20027;-70
2021/01/20 04:28:32;;;;;;;3.08;1.40;;;5.80;85.90;;;;;;5010530;28;20105;-70
2021/01/20 04:30:58;;;;;;;5.00;1.65;;;5.90;84.70;;;;;;5014487;28;20014;-70
2021/01/20 04:33:24;;;;;;;4.82;1.80;;;6.00;85.20;;;;;;5014104;28;20068;-70
2021/01/20 04:35:50;;;;;;;44.38;20.63;;;5.90;87.40;;;;;;5013006;28;20026;-70
2021/01/20 04:38:15;;;;;;;10.98;4.10;;;5.70;87.10;;;;;;5014318;28;20055;-70
2021/01/20 04:40:41;;;;;;;3.80;1.63;;;5.40;90.40;;;;;;5013002;28;20057;-70
2021/01/20 04:43:06;;;;;;;5.05;1.83;;;5.30;90.80;;;;;;5012650;28;20026;-70
2021/01/20 04:45:32;;;;;;;6.35;2.22;;;5.30;91.30;;;;;;5014168;28;20108;-70
2021/01/20 04:48:00;;;;;;;5.03;1.63;;;4.90;91.90;;;;;;5000273;28;20031;-70
2021/01/20 04:50:29;;;;;;;5.45;1.77;;;4.90;91.70;;;;;;4993579;28;20050;-70
2021/01/20 04:53:00;;;;;;;6.50;1.88;;;4.90;91.70;;;;;;4994066;28;20038;-70
2021/01/20 04:55:26;;;;;;;4.75;1.63;;;4.90;92.00;;;;;;4994385;28;20034;-70
2021/01/20 04:57:53;;;;;;;7.90;2.50;;;4.80;92.40;;;;;;4994217;28;20530;-70
2021/01/20 05:00:19;;;;;;;5.78;2.22;;;4.80;92.10;;;;;;4993384;28;20038;-70
2021/01/20 05:02:45;;;;;;;6.88;2.80;;;4.70;92.80;;;;;;4992612;28;20034;-70
2021/01/20 05:05:12;;;;;;;5.75;2.00;;;4.60;93.80;;;;;;4994128;28;20030;-70
2021/01/20 05:07:37;;;;;;;4.53;1.70;;;4.50;92.70;;;;;;4994106;28;20134;-70
2021/01/20 05:10:03;;;;;;;5.10;1.60;;;5.00;91.40;;;;;;4994159;28;20157;-70
2021/01/20 05:12:35;;;;;;;4.53;1.60;;;4.80;91.00;;;;;;4993789;28;20029;-70
2021/01/20 05:15:03;;;;;;;44.75;17.35;;;5.10;91.10;;;;;;4994023;28;20485;-70
2021/01/20 05:17:29;;;;;;;18.55;7.38;;;5.30;90.10;;;;;;4994043;28;20014;-70
2021/01/20 05:19:55;;;;;;;12.13;5.57;;;5.20;90.20;;;;;;4992656;28;20026;-70
2021/01/20 05:22:20;;;;;;;18.00;8.20;;;5.00;91.00;;;;;;4993679;28;20034;-70
2021/01/20 05:24:57;;;;;;;8.98;3.88;;;4.80;91.70;;;;;;4993868;28;20022;-70
2021/01/20 05:27:26;;;;;;;8.07;3.63;;;5.00;91.10;;;;;;4991440;28;20625;-70
2021/01/20 05:30:06;;;;;;;12.18;6.60;;;5.00;91.70;;;;;;4994016;28;20070;-70
2021/01/20 05:32:32;;;;;;;12.75;7.65;;;4.90;91.60;;;;;;4993821;28;20044;-70
2021/01/20 05:35:06;;;;;;;12.27;7.13;;;4.60;92.40;;;;;;4994053;28;20443;-70
2021/01/20 05:37:43;;;;;;;11.93;6.40;;;4.40;92.60;;;;;;4992517;28;20113;-70
2021/01/20 05:40:11;;;;;;;5.82;2.60;;;4.40;92.80;;;;;;4991559;28;20026;-70
2021/01/20 05:42:53;;;;;;;10.80;7.13;;;4.50;92.80;;;;;;4987785;28;20106;-70
2021/01/20 05:45:23;;;;;;;8.35;5.70;;;4.50;92.60;;;;;;4993224;28;20048;-70
2021/01/20 05:48:05;;;;;;;;;;;4.60;91.90;;;;;;4993583;28;20030;-70
2021/01/20 05:50:31;;;;;;;6.15;2.65;;;4.80;91.80;;;;;;4993416;28;19912;-69
2021/01/20 05:53:11;;;;;;;5.53;2.53;;;4.90;91.20;;;;;;5010242;23;20038;-64
2021/01/20 05:55:38;;;;;;;5.53;2.03;;;4.80;91.70;;;;;;5012071;28;20040;-64
2021/01/20 05:58:05;;;;;;;5.00;2.20;;;4.90;91.00;;;;;;5011551;28;20479;-64
2021/01/20 06:00:31;;;;;;;6.28;3.58;;;5.20;90.20;;;;;;5012503;28;20037;-64
2021/01/20 06:02:57;;;;;;;4.07;1.80;;;5.20;90.30;;;;;;5011667;28;20407;-64
2021/01/20 06:05:24;;;;;;;4.30;2.00;;;5.30;89.70;;;;;;5012413;28;20490;-64
2021/01/20 06:07:51;;;;;;;8.40;3.00;;;5.40;88.60;;;;;;5012373;28;20026;-64
2021/01/20 06:10:17;;;;;;;4.90;2.00;;;5.50;89.60;;;;;;5012333;28;20033;-64
2021/01/20 06:12:43;;;;;;;5.40;2.50;;;5.40;89.30;;;;;;5011638;28;20026;-64
2021/01/20 06:15:09;;;;;;;45.28;40.63;;;5.40;88.80;;;;;;5012254;28;20420;-64
2021/01/20 06:17:36;;;;;;;6.57;4.05;;;5.40;89.10;;;;;;5012121;28;20022;-64
2021/01/20 06:20:04;;;;;;;4.07;1.60;;;5.40;89.40;;;;;;5012134;28;20026;-64
2021/01/20 06:22:32;;;;;;;4.38;2.10;;;5.30;88.80;;;;;;5011371;28;20460;-64
2021/01/20 06:25:04;;;;;;;9.02;2.65;;;5.40;88.00;;;;;;5011986;28;20447;-64
2021/01/20 06:28:08;;;;;;;7.57;3.88;;;5.50;88.60;;;;;;5012061;28;20033;-64
2021/01/20 06:30:39;;;;;;;5.93;2.15;;;5.40;88.90;;;;;;5009502;28;20530;-64
2021/01/20 06:33:10;;;;;;;4.75;1.83;;;5.40;88.60;;;;;;5008659;28;20447;-64
2021/01/20 06:35:46;;;;;;;8.07;5.28;;;5.50;88.70;;;;;;5009381;28;20116;-64
2021/01/20 06:38:29;;;;;;;5.63;2.47;;;5.50;88.30;;;;;;5008899;28;20038;-64
2021/01/20 06:41:00;;;;;;;5.20;1.45;;;5.50;87.40;;;;;;5009345;28;20072;-64
2021/01/20 06:43:34;;;;;;;4.15;1.65;;;5.50;87.60;;;;;;5008539;28;20106;-64
2021/01/20 06:46:19;;;;;;;4.35;1.52;;;5.60;86.80;;;;;;5009248;28;20103;-66
2021/01/20 06:48:54;;;;;;;4.57;1.83;;;5.70;85.60;;;;;;5008960;28;20025;-66
2021/01/20 06:51:21;;;;;;;3.60;1.40;;;5.70;85.90;;;;;;5009036;28;20574;-66
2021/01/20 06:53:59;;;;;;;5.43;2.42;;;5.70;86.10;;;;;;5008226;28;20046;-66
2021/01/20 06:56:34;;;;;;;5.18;2.35;;;5.80;85.30;;;;;;5009011;28;20054;-66
2021/01/20 06:59:18;;;;;;;4.13;1.80;;;5.90;84.10;;;;;;4992546;28;20033;-66
2021/01/20 07:02:04;;;;;;;4.43;1.80;;;5.90;84.80;;;;;;5008485;28;20524;-66
2021/01/20 07:04:39;;;;;;;14.00;7.43;;;5.80;84.50;;;;;;4999456;28;20084;-66
2021/01/20 07:07:13;;;;;;;8.52;3.72;;;5.80;84.80;;;;;;5011340;28;20392;-66
2021/01/20 07:09:50;;;;;;;6.10;2.30;;;5.80;84.40;;;;;;5011210;28;20038;-73
2021/01/20 07:12:24;;;;;;;5.07;1.60;;;5.80;83.70;;;;;;5010534;28;20488;-66
2021/01/20 07:14:52;;;;;;;7.95;2.97;;;5.90;83.80;;;;;;5011233;28;20476;-67
2021/01/20 07:17:18;;;;;;;4.75;1.85;;;5.70;84.80;;;;;;5011261;28;20018;-67
2021/01/20 07:19:45;;;;;;;5.40;2.15;;;5.70;85.60;;;;;;5011197;28;20022;-67
2021/01/20 07:22:10;;;;;;;5.35;2.10;;;5.70;85.90;;;;;;5010497;28;20025;-67
2021/01/20 07:24:36;;;;;;;3.90;1.45;;;5.70;84.60;;;;;;5011141;28;20537;-67
2021/01/20 07:27:06;;;;;;;9.57;4.15;;;5.50;87.20;;;;;;5011158;28;20026;-67
2021/01/20 07:29:32;;;;;;;5.03;1.98;;;5.40;87.00;;;;;;5011110;28;20104;-67
2021/01/20 07:31:59;;;;;;;7.00;3.25;;;5.50;86.70;;;;;;5010413;28;20022;-67
2021/01/20 07:34:38;;;;;;;14.25;8.15;;;5.40;87.90;;;;;;5011120;28;20026;-66
2021/01/20 07:37:14;;;;;;;15.95;8.13;;;5.40;89.10;;;;;;5011243;28;20105;-64
2021/01/20 07:39:40;;;;;;;5.45;1.90;;;5.10;90.60;;;;;;5011065;28;20037;-64
2021/01/20 07:42:06;;;;;;;8.95;5.95;;;5.00;90.90;;;;;;5010389;28;20038;-64
2021/01/20 07:44:33;;;;;;;5.57;2.03;;;5.00;91.30;;;;;;5010929;28;20297;-64
2021/01/20 07:47:04;;;;;;;5.10;2.30;;;5.00;90.70;;;;;;5010955;28;20029;-64
2021/01/20 07:49:30;;;;;;;4.68;1.85;;;5.00;91.60;;;;;;5009830;28;20037;-64
2021/01/20 07:52:06;;;;;;;6.00;2.35;;;4.90;92.00;;;;;;5014361;28;20089;-64
2021/01/20 07:54:39;;;;;;;4.75;1.60;;;5.00;91.70;;;;;;5014404;28;20029;-63
2021/01/20 07:57:09;;;;;;;4.43;1.55;;;5.00;91.10;;;;;;5014866;28;20064;-64
2021/01/20 07:59:35;;;;;;;5.10;1.60;;;5.10;91.20;;;;;;5015336;28;20022;-63
2021/01/20 08:02:14;;;;;;;4.57;2.03;;;5.20;90.70;;;;;;5014081;28;20431;-64
2021/01/20 08:04:40;;;;;;;5.47;2.20;;;5.30;90.70;;;;;;5014726;28;20416;-64
2021/01/20 08:07:07;;;;;;;5.03;2.03;;;5.90;87.30;;;;;;5014712;28;20396;-63
2021/01/20 08:09:39;;;;;;;7.10;2.60;;;6.00;86.80;;;;;;5014605;28;20125;-63
2021/01/20 08:12:08;;;;;;;5.68;2.08;;;5.90;87.30;;;;;;5013923;28;20034;-64
2021/01/20 08:14:35;;;;;;;7.88;3.30;;;6.10;86.00;;;;;;5014430;28;20026;-63
2021/01/20 08:17:01;;;;;;;14.45;6.82;;;6.20;87.20;;;;;;5014528;28;20049;-64
2021/01/20 08:19:27;;;;;;;18.10;8.75;;;6.20;86.20;;;;;;5014556;28;20373;-64
2021/01/20 08:21:53;;;;;;;28.60;13.73;;;6.30;86.40;;;;;;5013824;28;20029;-63
2021/01/20 08:24:22;;;;;;;20.92;9.43;;;6.20;87.00;;;;;;5014308;28;20527;-64
2021/01/20 08:26:58;;;;;;;15.07;6.13;;;6.10;90.00;;;;;;5014231;28;20025;-64
2021/01/20 08:29:24;;;;;;;115.75;50.97;;;6.10;89.50;;;;;;5014183;28;20030;-64
2021/01/20 08:32:10;;;;;;;8.02;3.25;;;6.40;87.90;;;;;;5013513;28;20097;-64
2021/01/20 08:34:40;;;;;;;32.85;14.02;;;6.40;86.90;;;;;;5012871;28;20392;-65
2021/01/20 08:37:09;;;;;;;6.72;2.78;;;6.60;86.20;;;;;;5014106;28;20068;-64
2021/01/20 08:39:36;;;;;;;21.20;9.63;;;6.60;85.70;;;;;;5013967;28;20029;-64
2021/01/20 08:42:22;;;;;;;25.73;11.32;;;6.70;86.00;;;;;;5011130;28;20041;-64
2021/01/20 08:45:09;;;;;;;10.75;5.07;;;6.70;85.80;;;;;;5013023;28;20033;-62
2021/01/20 08:47:43;;;;;;;17.98;10.50;;;6.70;85.30;;;;;;5012928;28;20029;-62
2021/01/20 08:50:09;;;;;;;5.35;2.03;;;6.70;86.70;;;;;;5014023;28;20036;-62
2021/01/20 08:52:51;;;;;;;10.77;4.95;;;6.80;84.70;;;;;;5013675;28;20026;-62
2021/01/20 08:55:32;;;;;;;10.05;3.55;;;6.80;84.60;;;;;;5013818;28;20064;-62
2021/01/20 08:58:16;;;;;;;;;;;6.80;85.40;;;;;;5014169;28;20113;-64
2021/01/20 09:00:42;;;;;;;10.85;4.70;;;6.90;84.50;;;;;;5013478;28;20406;-64
2021/01/20 09:03:19;;;;;;;34.58;15.00;;;7.00;83.60;;;;;;5013399;28;20080;-64
2021/01/20 09:05:46;;;;;;;27.73;12.80;;;7.00;83.90;;;;;;5013782;28;20491;-65
2021/01/20 09:08:13;;;;;;;86.57;44.00;;;7.10;84.80;;;;;;5013605;28;20480;-64
2021/01/20 09:10:38;;;;;;;9.30;4.63;;;7.10;85.10;;;;;;5012282;28;20033;-65
2021/01/20 09:13:04;;;;;;;5.90;1.95;;;7.20;83.30;;;;;;5013470;28;20026;-65
2021/01/20 09:15:30;;;;;;;5.95;2.80;;;7.30;82.00;;;;;;5013518;28;20073;-65
2021/01/20 09:17:55;;;;;;;3.58;1.80;;;7.40;82.70;;;;;;5013502;28;20033;-65
2021/01/20 09:20:21;;;;;;;5.88;1.90;;;7.40;80.40;;;;;;5013395;28;20562;-65
2021/01/20 09:22:47;;;;;;;4.90;2.10;;;7.40;80.50;;;;;;5013162;28;20550;-65
2021/01/20 09:25:13;;;;;;;5.35;2.05;;;7.50;79.30;;;;;;5013267;28;20026;-65
2021/01/20 09:27:39;;;;;;;4.70;2.03;;;7.40;81.50;;;;;;5013395;28;20353;-65
2021/01/20 09:30:07;;;;;;;4.57;2.00;;;7.40;81.10;;;;;;5013224;28;20029;-65
2021/01/20 09:32:40;;;;;;;4.07;2.20;;;7.50;80.30;;;;;;5012986;28;20022;-65
2021/01/20 09:35:07;;;;;;;4.55;1.60;;;7.50;78.90;;;;;;5013339;28;20384;-65
2021/01/20 09:37:33;;;;;;;5.03;1.83;;;7.60;77.60;;;;;;5013029;28;20112;-65
2021/01/20 09:39:58;;;;;;;5.00;2.00;;;7.60;76.90;;;;;;5013053;28;20105;-65
2021/01/20 09:42:24;;;;;;;4.80;1.80;;;7.60;78.40;;;;;;5012770;28;20071;-65
2021/01/20 09:44:49;;;;;;;3.13;1.42;;;7.70;77.80;;;;;;5000666;28;20471;-65
2021/01/20 09:47:15;;;;;;;11.45;5.65;;;7.60;78.10;;;;;;5012349;28;20387;-65
2021/01/20 09:49:42;;;;;;;6.55;2.15;;;7.70;79.10;;;;;;5012507;28;20445;-65
2021/01/20 09:52:10;;;;;;;8.57;3.67;;;7.80;76.00;;;;;;5011008;28;20022;-65
2021/01/20 09:54:36;;;;;;;3.97;1.92;;;7.80;76.60;;;;;;5011262;28;20455;-65
2021/01/20 09:57:03;;;;;;;8.20;2.42;;;7.90;76.60;;;;;;5012810;28;20503;-65
2021/01/20 09:59:29;;;;;;;3.85;1.85;;;7.90;76.10;;;;;;5012750;28;20506;-65
2021/01/20 10:01:54;;;;;;;4.68;1.85;;;7.80;74.10;;;;;;5012495;28;20037;-65
2021/01/20 10:04:20;;;;;;;3.03;1.38;;;7.80;75.40;;;;;;5012721;28;20030;-65
2021/01/20 10:06:45;;;;;;;5.07;1.70;;;7.90;73.50;;;;;;5012542;28;20029;-65
2021/01/20 10:09:11;;;;;;;4.40;1.52;;;7.90;73.30;;;;;;5010776;28;20034;-65
2021/01/20 10:11:36;;;;;;;4.70;1.70;;;7.90;74.00;;;;;;5009025;28;20497;-65
2021/01/20 10:14:02;;;;;;;4.85;1.90;;;8.00;73.70;;;;;;5011556;28;20076;-65
2021/01/20 10:16:27;;;;;;;17.60;10.77;;;8.00;74.30;;;;;;5012375;28;20554;-65
2021/01/20 10:18:53;;;;;;;4.55;1.50;;;8.00;73.90;;;;;;5012335;28;20042;-65
2021/01/20 10:21:18;;;;;;;5.63;2.80;;;8.10;72.70;;;;;;5012166;28;20026;-66
2021/01/20 10:23:44;;;;;;;20.17;10.65;;;8.10;75.90;;;;;;5011940;28;20404;-66
2021/01/20 10:26:09;;;;;;;11.70;5.30;;;8.30;74.20;;;;;;5012163;28;20037;-65
2021/01/20 10:28:35;;;;;;;17.13;7.70;;;8.40;72.30;;;;;;5011978;28;20029;-65
2021/01/20 10:31:00;;;;;;;3.83;1.48;;;8.40;73.40;;;;;;5012205;28;20026;-65
2021/01/20 10:33:26;;;;;;;6.22;2.38;;;8.40;70.60;;;;;;5011554;28;20089;-65
2021/01/20 10:35:51;;;;;;;4.93;1.75;;;8.30;71.30;;;;;;5010680;28;20072;-66
2021/01/20 10:38:18;;;;;;;5.40;1.88;;;8.20;71.60;;;;;;5011110;28;20022;-66
2021/01/20 10:40:44;;;;;;;6.88;2.00;;;8.30;71.20;;;;;;5011761;28;20034;-66
2021/01/20 10:43:10;;;;;;;4.30;1.48;;;8.30;73.50;;;;;;5011578;28;20041;-66
2021/01/20 10:45:35;;;;;;;5.35;1.73;;;8.50;71.50;;;;;;5011851;28;20030;-66
2021/01/20 10:48:01;;;;;;;4.63;1.98;;;8.50;69.90;;;;;;5011712;28;20029;-66
2021/01/20 10:50:26;;;;;;;4.65;1.92;;;8.60;71.10;;;;;;5010410;28;20086;-66
2021/01/20 10:52:52;;;;;;;5.25;1.77;;;8.60;68.80;;;;;;5011328;28;20417;-66
2021/01/20 10:55:17;;;;;;;4.72;1.75;;;8.60;70.20;;;;;;5011998;28;20022;-66
2021/01/20 10:57:43;;;;;;;10.63;2.50;;;8.70;70.10;;;;;;5011641;28;20432;-66
2021/01/20 11:00:09;;;;;;;6.80;2.75;;;8.70;70.60;;;;;;5011975;28;20372;-65
2021/01/20 11:02:35;;;;;;;4.55;1.80;;;8.90;68.80;;;;;;5011768;28;20022;-66
2021/01/20 11:05:00;;;;;;;4.05;1.80;;;9.00;68.20;;;;;;5011421;28;20039;-66
2021/01/20 11:07:26;;;;;;;7.72;2.42;;;8.90;67.10;;;;;;5011451;28;20025;-66
2021/01/20 11:09:53;;;;;;;5.13;2.38;;;9.00;70.30;;;;;;5011333;28;20018;-66
2021/01/20 11:12:19;;;;;;;4.25;1.70;;;9.20;68.20;;;;;;5011088;28;20028;-66
2021/01/20 11:14:44;;;;;;;4.00;1.58;;;9.20;66.80;;;;;;5011363;28;20022;-66
2021/01/20 11:17:10;;;;;;;6.75;1.85;;;9.20;67.10;;;;;;5011355;28;20544;-66
2021/01/20 11:19:36;;;;;;;5.07;1.95;;;9.20;68.50;;;;;;5011338;28;20053;-66
2021/01/20 11:22:01;;;;;;;4.82;1.80;;;9.40;66.70;;;;;;5011050;28;20032;-66
2021/01/20 11:24:27;;;;;;;6.20;1.60;;;9.60;65.30;;;;;;5011161;28;20022;-66
2021/01/20 11:26:52;;;;;;;9.10;3.80;;;9.60;66.00;;;;;;5011241;28;20373;-66
2021/01/20 11:29:18;;;;;;;4.93;2.25;;;9.80;65.60;;;;;;5011149;28;20080;-64
2021/01/20 11:31:43;;;;;;;8.27;3.70;;;9.90;65.90;;;;;;5001905;28;20435;-63
2021/01/20 11:34:09;;;;;;;6.03;2.10;;;10.40;63.10;;;;;;5000005;28;20476;-63
2021/01/20 11:36:34;;;;;;;5.80;2.10;;;11.00;60.80;;;;;;5000821;28;20101;-63
2021/01/20 11:39:00;;;;;;;25.20;11.90;;;11.50;61.20;;;;;;5001794;28;20476;-63
2021/01/20 11:41:25;;;;;;;11.43;5.47;;;11.50;60.20;;;;;;4999773;28;20480;-63
2021/01/20 11:43:51;;;;;;;4.45;1.85;;;10.80;59.80;;;;;;4995806;28;20034;-63
2021/01/20 11:46:20;;;;;;;8.27;3.72;;;10.40;61.00;;;;;;4990159;28;20026;-63
2021/01/20 11:48:46;;;;;;;3.78;1.50;;;10.10;62.20;;;;;;4991378;28;20026;-63
2021/01/20 11:51:12;;;;;;;4.30;1.55;;;10.00;62.90;;;;;;4991377;28;20026;-63
2021/01/20 11:53:37;;;;;;;4.53;1.60;;;10.00;63.70;;;;;;4990415;28;20034;-64
2021/01/20 11:56:03;;;;;;;9.32;3.95;;;10.00;64.00;;;;;;4991307;28;20049;-64
2021/01/20 11:58:29;;;;;;;4.40;1.67;;;10.10;64.80;;;;;;4991489;28;20029;-63
2021/01/20 12:00:55;;;;;;;3.90;1.70;;;10.00;63.40;;;;;;4991317;28;20014;-63
2021/01/20 12:03:20;;;;;;;3.85;1.60;;;9.70;65.10;;;;;;4989826;28;20030;-63
2021/01/20 12:05:46;;;;;;;8.65;3.65;;;9.70;66.00;;;;;;4993746;28;20047;-63
2021/01/20 12:08:11;;;;;;;30.75;14.05;;;9.70;66.10;;;;;;4991129;28;20123;-63
2021/01/20 12:10:37;;;;;;;9.05;1.70;;;9.70;65.40;;;;;;4989921;28;20023;-63
2021/01/20 12:13:02;;;;;;;4.97;1.92;;;9.70;65.00;;;;;;4991006;28;20097;-63
2021/01/20 12:15:28;;;;;;;5.28;1.80;;;9.70;69.20;;;;;;4991299;28;20031;-63
2021/01/20 12:17:53;;;;;;;9.77;4.43;;;9.50;66.50;;;;;;4991321;28;20023;-63
2021/01/20 12:20:19;;;;;;;5.68;2.33;;;9.40;68.00;;;;;;4991211;28;20030;-63
2021/01/20 12:22:45;;;;;;;4.53;2.10;;;9.50;67.50;;;;;;4989603;28;20098;-63
2021/01/20 12:25:10;;;;;;;4.53;1.40;;;9.50;66.40;;;;;;4991358;28;20389;-63
2021/01/20 12:27:38;;;;;;;5.47;2.00;;;9.50;66.20;;;;;;4991137;28;20372;-72
2021/01/20 12:30:05;;;;;;;10.60;3.47;;;9.40;66.20;;;;;;4991060;28;20068;-63
2021/01/20 12:32:30;;;;;;;5.97;2.30;;;9.40;66.30;;;;;;4990730;28;20742;-63
2021/01/20 12:34:56;;;;;;;16.85;6.18;;;9.40;67.60;;;;;;4990897;28;20033;-63
2021/01/20 12:37:21;;;;;;;8.90;3.55;;;9.50;67.20;;;;;;5001883;28;20025;-63
2021/01/20 12:39:47;;;;;;;7.97;1.73;;;9.40;71.40;;;;;;5004980;28;20026;-63
2021/01/20 12:42:12;;;;;;;5.88;1.92;;;9.40;70.70;;;;;;5006180;28;20022;-63
2021/01/20 12:44:38;;;;;;;5.68;2.10;;;9.50;70.40;;;;;;5014125;28;20030;-63
2021/01/20 12:47:03;;;;;;;5.43;1.98;;;9.50;70.40;;;;;;5014010;28;20037;-63
2021/01/20 12:49:29;;;;;;;5.88;1.70;;;9.50;73.60;;;;;;5013993;28;20034;-63
2021/01/20 12:51:54;;;;;;;13.10;1.83;;;9.40;74.60;;;;;;5013850;28;20512;-63
2021/01/20 12:54:20;;;;;;;4.10;1.70;;;9.40;77.40;;;;;;5013795;28;20124;-63
2021/01/20 12:56:46;;;;;;;8.95;2.50;;;9.40;79.70;;;;;;5013893;28;20084;-71
2021/01/20 12:59:11;;;;;;;10.57;2.28;;;9.50;80.30;;;;;;5013798;28;20034;-65